sensor_id;sensor_type;location;lat;lon;timestamp;P1;durP1;ratioP1;P2;durP2;ratioP2
43809;SDS011;29440;48.208;11.162;2023-12-07T00:01:00;19.73;;;10.13;;
43809;SDS011;29440;48.208;11.162;2023-12-07T00:03:26;22.00;;;11.52;;
43809;SDS011;29440;48.208;11.162;2023-12-07T00:05:51;20.45;;;10.77;;
43809;SDS011;29440;48.208;11.162;2023-12-07T00:08:17;19.35;;;10.35;;
43809;SDS011;29440;48.208;11.162;2023-12-07T00:10:42;19.80;;;10.85;;
43809;SDS011;29440;48.208;11.162;2023-12-07T00:13:08;20.40;;;11.23;;
43809;SDS011;29440;48.208;11.162;2023-12-07T00:15:33;19.70;;;11.38;;
43809;SDS011;29440;48.208;11.162;2023-12-07T00:17:59;20.92;;;10.45;;
43809;SDS011;29440;48.208;11.162;2023-12-07T00:20:25;22.38;;;10.98;;
43809;SDS011;29440;48.208;11.162;2023-12-07T00:22:51;23.75;;;10.20;;
43809;SDS011;29440;48.208;11.162;2023-12-07T00:25:16;20.00;;;11.00;;
43809;SDS011;29440;48.208;11.162;2023-12-07T00:27:42;19.42;;;9.40;;
43809;SDS011;29440;48.208;11.162;2023-12-07T00:30:07;17.88;;;9.43;;
43809;SDS011;29440;48.208;11.162;2023-12-07T00:32:33;19.77;;;9.88;;
43809;SDS011;29440;48.208;11.162;2023-12-07T00:34:59;17.95;;;10.35;;
43809;SDS011;29440;48.208;11.162;2023-12-07T00:37:25;19.75;;;10.55;;
43809;SDS011;29440;48.208;11.162;2023-12-07T00:39:52;18.58;;;9.27;;
43809;SDS011;29440;48.208;11.162;2023-12-07T00:42:17;17.58;;;9.35;;
43809;SDS011;29440;48.208;11.162;2023-12-07T00:44:43;17.38;;;9.77;;
43809;SDS011;29440;48.208;11.162;2023-12-07T00:47:09;22.88;;;10.25;;
43809;SDS011;29440;48.208;11.162;2023-12-07T00:49:37;19.55;;;9.73;;
43809;SDS011;29440;48.208;11.162;2023-12-07T00:52:04;18.50;;;9.80;;
43809;SDS011;29440;48.208;11.162;2023-12-07T00:54:29;19.88;;;9.43;;
43809;SDS011;29440;48.208;11.162;2023-12-07T00:56:55;18.85;;;9.13;;
43809;SDS011;29440;48.208;11.162;2023-12-07T00:59:20;18.45;;;8.98;;
43809;SDS011;29440;48.208;11.162;2023-12-07T01:01:46;19.33;;;9.63;;
43809;SDS011;29440;48.208;11.162;2023-12-07T01:04:12;17.67;;;8.88;;
43809;SDS011;29440;48.208;11.162;2023-12-07T01:06:37;18.50;;;9.95;;
43809;SDS011;29440;48.208;11.162;2023-12-07T01:09:03;18.85;;;9.57;;
43809;SDS011;29440;48.208;11.162;2023-12-07T01:11:29;20.42;;;10.25;;
43809;SDS011;29440;48.208;11.162;2023-12-07T01:13:54;17.88;;;9.90;;
43809;SDS011;29440;48.208;11.162;2023-12-07T01:16:20;18.92;;;9.27;;
43809;SDS011;29440;48.208;11.162;2023-12-07T01:18:45;16.67;;;8.63;;
43809;SDS011;29440;48.208;11.162;2023-12-07T01:21:11;17.00;;;9.13;;
43809;SDS011;29440;48.208;11.162;2023-12-07T01:23:37;19.80;;;9.25;;
43809;SDS011;29440;48.208;11.162;2023-12-07T01:26:02;18.45;;;9.20;;
43809;SDS011;29440;48.208;11.162;2023-12-07T01:28:28;17.20;;;8.68;;
43809;SDS011;29440;48.208;11.162;2023-12-07T01:30:54;16.80;;;8.60;;
43809;SDS011;29440;48.208;11.162;2023-12-07T01:33:20;16.70;;;8.77;;
43809;SDS011;29440;48.208;11.162;2023-12-07T01:35:46;17.05;;;8.27;;
43809;SDS011;29440;48.208;11.162;2023-12-07T01:38:12;15.20;;;7.28;;
43809;SDS011;29440;48.208;11.162;2023-12-07T01:40:37;17.13;;;8.70;;
43809;SDS011;29440;48.208;11.162;2023-12-07T01:43:03;19.25;;;9.65;;
43809;SDS011;29440;48.208;11.162;2023-12-07T01:45:28;18.92;;;8.52;;
43809;SDS011;29440;48.208;11.162;2023-12-07T01:47:54;17.10;;;9.43;;
43809;SDS011;29440;48.208;11.162;2023-12-07T01:50:21;20.35;;;9.80;;
43809;SDS011;29440;48.208;11.162;2023-12-07T01:52:49;18.45;;;8.98;;
43809;SDS011;29440;48.208;11.162;2023-12-07T01:55:17;16.95;;;8.07;;
43809;SDS011;29440;48.208;11.162;2023-12-07T01:57:44;18.23;;;8.73;;
43809;SDS011;29440;48.208;11.162;2023-12-07T02:00:10;19.65;;;9.02;;
43809;SDS011;29440;48.208;11.162;2023-12-07T02:02:37;17.98;;;8.48;;
43809;SDS011;29440;48.208;11.162;2023-12-07T02:05:04;15.18;;;8.38;;
43809;SDS011;29440;48.208;11.162;2023-12-07T02:07:30;15.30;;;7.43;;
43809;SDS011;29440;48.208;11.162;2023-12-07T02:09:57;16.77;;;7.97;;
43809;SDS011;29440;48.208;11.162;2023-12-07T02:12:23;15.57;;;6.65;;
43809;SDS011;29440;48.208;11.162;2023-12-07T02:22:29;11.27;;;5.90;;
43809;SDS011;29440;48.208;11.162;2023-12-07T02:25:06;15.82;;;7.15;;
43809;SDS011;29440;48.208;11.162;2023-12-07T02:30:05;14.57;;;7.30;;
43809;SDS011;29440;48.208;11.162;2023-12-07T02:32:39;14.52;;;7.07;;
43809;SDS011;29440;48.208;11.162;2023-12-07T02:35:06;14.98;;;7.13;;
43809;SDS011;29440;48.208;11.162;2023-12-07T02:37:39;14.68;;;7.35;;
43809;SDS011;29440;48.208;11.162;2023-12-07T02:40:15;13.48;;;7.07;;
43809;SDS011;29440;48.208;11.162;2023-12-07T02:42:43;14.07;;;6.93;;
43809;SDS011;29440;48.208;11.162;2023-12-07T02:45:09;15.20;;;7.70;;
43809;SDS011;29440;48.208;11.162;2023-12-07T02:47:35;18.20;;;7.95;;
43809;SDS011;29440;48.208;11.162;2023-12-07T02:50:05;17.85;;;7.80;;
43809;SDS011;29440;48.208;11.162;2023-12-07T02:52:32;19.05;;;8.15;;
43809;SDS011;29440;48.208;11.162;2023-12-07T02:54:58;18.45;;;8.55;;
43809;SDS011;29440;48.208;11.162;2023-12-07T02:57:23;16.25;;;8.23;;
43809;SDS011;29440;48.208;11.162;2023-12-07T02:59:49;19.73;;;8.52;;
43809;SDS011;29440;48.208;11.162;2023-12-07T03:02:14;19.77;;;8.63;;
43809;SDS011;29440;48.208;11.162;2023-12-07T03:04:40;14.25;;;7.63;;
43809;SDS011;29440;48.208;11.162;2023-12-07T03:07:05;18.02;;;8.65;;
43809;SDS011;29440;48.208;11.162;2023-12-07T03:09:31;16.02;;;7.07;;
43809;SDS011;29440;48.208;11.162;2023-12-07T03:11:56;23.50;;;10.80;;
43809;SDS011;29440;48.208;11.162;2023-12-07T03:14:22;21.38;;;10.00;;
43809;SDS011;29440;48.208;11.162;2023-12-07T03:16:48;23.70;;;10.20;;
43809;SDS011;29440;48.208;11.162;2023-12-07T03:19:13;19.10;;;9.93;;
43809;SDS011;29440;48.208;11.162;2023-12-07T03:21:39;18.50;;;8.77;;
43809;SDS011;29440;48.208;11.162;2023-12-07T03:24:06;18.77;;;8.30;;
43809;SDS011;29440;48.208;11.162;2023-12-07T03:26:35;19.30;;;9.18;;
43809;SDS011;29440;48.208;11.162;2023-12-07T03:29:04;19.25;;;8.40;;
43809;SDS011;29440;48.208;11.162;2023-12-07T03:31:30;19.05;;;8.80;;
43809;SDS011;29440;48.208;11.162;2023-12-07T03:33:55;20.50;;;8.88;;
43809;SDS011;29440;48.208;11.162;2023-12-07T03:36:22;21.05;;;9.20;;
43809;SDS011;29440;48.208;11.162;2023-12-07T03:38:48;22.35;;;9.48;;
43809;SDS011;29440;48.208;11.162;2023-12-07T03:41:13;23.33;;;9.93;;
43809;SDS011;29440;48.208;11.162;2023-12-07T03:43:39;21.55;;;9.25;;
43809;SDS011;29440;48.208;11.162;2023-12-07T03:46:05;24.70;;;11.18;;
43809;SDS011;29440;48.208;11.162;2023-12-07T03:48:32;17.48;;;9.05;;
43809;SDS011;29440;48.208;11.162;2023-12-07T03:50:58;20.15;;;8.70;;
43809;SDS011;29440;48.208;11.162;2023-12-07T03:53:24;19.35;;;8.40;;
43809;SDS011;29440;48.208;11.162;2023-12-07T03:55:49;19.08;;;8.68;;
43809;SDS011;29440;48.208;11.162;2023-12-07T03:58:15;18.92;;;8.70;;
43809;SDS011;29440;48.208;11.162;2023-12-07T04:00:41;18.25;;;8.50;;
43809;SDS011;29440;48.208;11.162;2023-12-07T04:03:06;18.33;;;7.82;;
43809;SDS011;29440;48.208;11.162;2023-12-07T04:05:32;19.65;;;8.35;;
43809;SDS011;29440;48.208;11.162;2023-12-07T04:07:58;16.95;;;7.70;;
43809;SDS011;29440;48.208;11.162;2023-12-07T04:10:24;20.90;;;9.00;;
43809;SDS011;29440;48.208;11.162;2023-12-07T04:12:50;16.60;;;8.90;;
43809;SDS011;29440;48.208;11.162;2023-12-07T04:15:17;19.15;;;7.80;;
43809;SDS011;29440;48.208;11.162;2023-12-07T04:17:43;17.50;;;8.25;;
43809;SDS011;29440;48.208;11.162;2023-12-07T04:20:09;17.20;;;7.53;;
43809;SDS011;29440;48.208;11.162;2023-12-07T04:22:35;16.17;;;7.47;;
43809;SDS011;29440;48.208;11.162;2023-12-07T04:25:01;16.30;;;8.07;;
43809;SDS011;29440;48.208;11.162;2023-12-07T04:27:26;17.75;;;7.60;;
43809;SDS011;29440;48.208;11.162;2023-12-07T04:29:52;17.92;;;7.80;;
43809;SDS011;29440;48.208;11.162;2023-12-07T04:32:17;16.88;;;9.23;;
43809;SDS011;29440;48.208;11.162;2023-12-07T04:34:43;19.70;;;9.50;;
43809;SDS011;29440;48.208;11.162;2023-12-07T04:37:09;24.17;;;10.85;;
43809;SDS011;29440;48.208;11.162;2023-12-07T04:39:35;19.35;;;8.90;;
43809;SDS011;29440;48.208;11.162;2023-12-07T04:42:01;18.33;;;9.55;;
43809;SDS011;29440;48.208;11.162;2023-12-07T04:44:26;19.63;;;9.10;;
43809;SDS011;29440;48.208;11.162;2023-12-07T04:46:52;19.35;;;9.10;;
43809;SDS011;29440;48.208;11.162;2023-12-07T04:49:17;20.25;;;8.60;;
43809;SDS011;29440;48.208;11.162;2023-12-07T04:51:43;17.75;;;9.55;;
43809;SDS011;29440;48.208;11.162;2023-12-07T04:54:11;18.33;;;9.07;;
43809;SDS011;29440;48.208;11.162;2023-12-07T04:56:41;23.13;;;8.57;;
43809;SDS011;29440;48.208;11.162;2023-12-07T04:59:07;18.17;;;8.48;;
43809;SDS011;29440;48.208;11.162;2023-12-07T05:04:32;19.20;;;8.20;;
43809;SDS011;29440;48.208;11.162;2023-12-07T05:06:58;13.35;;;6.43;;
43809;SDS011;29440;48.208;11.162;2023-12-07T05:09:24;17.77;;;7.25;;
43809;SDS011;29440;48.208;11.162;2023-12-07T05:11:51;16.00;;;7.13;;
43809;SDS011;29440;48.208;11.162;2023-12-07T05:14:16;14.75;;;6.80;;
43809;SDS011;29440;48.208;11.162;2023-12-07T05:16:42;17.30;;;7.43;;
43809;SDS011;29440;48.208;11.162;2023-12-07T05:19:08;15.40;;;7.10;;
43809;SDS011;29440;48.208;11.162;2023-12-07T05:21:34;14.90;;;7.43;;
43809;SDS011;29440;48.208;11.162;2023-12-07T05:23:59;13.30;;;6.70;;
43809;SDS011;29440;48.208;11.162;2023-12-07T05:26:25;15.65;;;6.68;;
43809;SDS011;29440;48.208;11.162;2023-12-07T05:28:50;14.75;;;7.50;;
43809;SDS011;29440;48.208;11.162;2023-12-07T05:31:19;12.20;;;6.35;;
43809;SDS011;29440;48.208;11.162;2023-12-07T05:33:44;14.27;;;6.20;;
43809;SDS011;29440;48.208;11.162;2023-12-07T05:36:10;12.48;;;6.53;;
43809;SDS011;29440;48.208;11.162;2023-12-07T05:38:37;12.90;;;5.60;;
43809;SDS011;29440;48.208;11.162;2023-12-07T05:41:02;13.55;;;6.07;;
43809;SDS011;29440;48.208;11.162;2023-12-07T05:43:28;10.20;;;5.57;;
43809;SDS011;29440;48.208;11.162;2023-12-07T05:45:53;12.18;;;6.07;;
43809;SDS011;29440;48.208;11.162;2023-12-07T05:48:19;12.15;;;5.80;;
43809;SDS011;29440;48.208;11.162;2023-12-07T05:50:44;10.27;;;4.82;;
43809;SDS011;29440;48.208;11.162;2023-12-07T05:53:10;11.85;;;5.47;;
43809;SDS011;29440;48.208;11.162;2023-12-07T05:55:36;12.63;;;5.78;;
43809;SDS011;29440;48.208;11.162;2023-12-07T05:58:01;12.90;;;5.13;;
43809;SDS011;29440;48.208;11.162;2023-12-07T06:00:29;8.00;;;3.90;;
43809;SDS011;29440;48.208;11.162;2023-12-07T06:02:54;11.88;;;5.40;;
43809;SDS011;29440;48.208;11.162;2023-12-07T06:05:20;14.85;;;6.72;;
43809;SDS011;29440;48.208;11.162;2023-12-07T06:07:46;13.52;;;5.20;;
43809;SDS011;29440;48.208;11.162;2023-12-07T06:10:11;14.95;;;5.75;;
43809;SDS011;29440;48.208;11.162;2023-12-07T06:12:37;14.63;;;5.47;;
43809;SDS011;29440;48.208;11.162;2023-12-07T06:15:02;10.40;;;4.97;;
43809;SDS011;29440;48.208;11.162;2023-12-07T06:17:31;11.95;;;5.32;;
43809;SDS011;29440;48.208;11.162;2023-12-07T06:19:58;13.40;;;5.93;;
43809;SDS011;29440;48.208;11.162;2023-12-07T06:22:24;12.30;;;5.55;;
43809;SDS011;29440;48.208;11.162;2023-12-07T06:24:49;10.43;;;4.97;;
43809;SDS011;29440;48.208;11.162;2023-12-07T06:27:15;12.30;;;4.97;;
43809;SDS011;29440;48.208;11.162;2023-12-07T06:29:41;11.95;;;5.15;;
43809;SDS011;29440;48.208;11.162;2023-12-07T06:32:06;10.20;;;4.43;;
43809;SDS011;29440;48.208;11.162;2023-12-07T06:34:32;8.93;;;4.35;;
43809;SDS011;29440;48.208;11.162;2023-12-07T06:36:57;8.88;;;3.85;;
43809;SDS011;29440;48.208;11.162;2023-12-07T06:39:23;14.32;;;5.40;;
43809;SDS011;29440;48.208;11.162;2023-12-07T06:41:48;12.27;;;5.43;;
43809;SDS011;29440;48.208;11.162;2023-12-07T06:44:14;9.75;;;4.85;;
43809;SDS011;29440;48.208;11.162;2023-12-07T06:46:39;11.07;;;4.93;;
43809;SDS011;29440;48.208;11.162;2023-12-07T06:49:05;10.85;;;4.80;;
43809;SDS011;29440;48.208;11.162;2023-12-07T06:51:30;8.82;;;5.20;;
43809;SDS011;29440;48.208;11.162;2023-12-07T06:53:56;9.88;;;4.97;;
43809;SDS011;29440;48.208;11.162;2023-12-07T06:56:22;11.65;;;5.95;;
43809;SDS011;29440;48.208;11.162;2023-12-07T06:58:48;11.07;;;4.93;;
43809;SDS011;29440;48.208;11.162;2023-12-07T07:01:13;11.25;;;5.32;;
43809;SDS011;29440;48.208;11.162;2023-12-07T07:03:39;10.02;;;4.53;;
43809;SDS011;29440;48.208;11.162;2023-12-07T07:06:04;11.73;;;5.35;;
43809;SDS011;29440;48.208;11.162;2023-12-07T07:08:30;14.25;;;5.55;;
43809;SDS011;29440;48.208;11.162;2023-12-07T07:10:56;14.32;;;6.68;;
43809;SDS011;29440;48.208;11.162;2023-12-07T07:13:21;10.13;;;5.07;;
43809;SDS011;29440;48.208;11.162;2023-12-07T07:15:47;13.48;;;4.38;;
43809;SDS011;29440;48.208;11.162;2023-12-07T07:18:13;8.95;;;4.47;;
43809;SDS011;29440;48.208;11.162;2023-12-07T07:20:38;8.25;;;3.88;;
43809;SDS011;29440;48.208;11.162;2023-12-07T07:23:04;6.38;;;3.55;;
43809;SDS011;29440;48.208;11.162;2023-12-07T07:25:30;8.52;;;3.70;;
43809;SDS011;29440;48.208;11.162;2023-12-07T07:27:55;5.68;;;3.15;;
43809;SDS011;29440;48.208;11.162;2023-12-07T07:30:21;8.20;;;4.00;;
43809;SDS011;29440;48.208;11.162;2023-12-07T07:32:47;8.35;;;3.45;;
43809;SDS011;29440;48.208;11.162;2023-12-07T07:35:13;10.55;;;3.88;;
43809;SDS011;29440;48.208;11.162;2023-12-07T07:37:39;8.50;;;3.50;;
43809;SDS011;29440;48.208;11.162;2023-12-07T07:40:06;7.00;;;3.13;;
43809;SDS011;29440;48.208;11.162;2023-12-07T07:42:33;5.70;;;3.17;;
43809;SDS011;29440;48.208;11.162;2023-12-07T07:44:58;5.68;;;3.30;;
43809;SDS011;29440;48.208;11.162;2023-12-07T07:47:24;5.78;;;3.30;;
43809;SDS011;29440;48.208;11.162;2023-12-07T07:49:50;5.47;;;2.67;;
43809;SDS011;29440;48.208;11.162;2023-12-07T07:52:15;5.22;;;2.70;;
43809;SDS011;29440;48.208;11.162;2023-12-07T07:54:41;3.53;;;2.30;;
43809;SDS011;29440;48.208;11.162;2023-12-07T07:57:07;5.20;;;3.00;;
43809;SDS011;29440;48.208;11.162;2023-12-07T07:59:33;5.03;;;2.50;;
43809;SDS011;29440;48.208;11.162;2023-12-07T08:01:58;6.00;;;2.70;;
43809;SDS011;29440;48.208;11.162;2023-12-07T08:04:24;4.30;;;2.92;;
43809;SDS011;29440;48.208;11.162;2023-12-07T08:06:49;7.03;;;3.67;;
43809;SDS011;29440;48.208;11.162;2023-12-07T08:09:15;5.85;;;3.42;;
43809;SDS011;29440;48.208;11.162;2023-12-07T08:11:40;5.05;;;3.70;;
43809;SDS011;29440;48.208;11.162;2023-12-07T08:14:06;5.72;;;3.53;;
43809;SDS011;29440;48.208;11.162;2023-12-07T09:10:29;8.05;;;4.38;;
43809;SDS011;29440;48.208;11.162;2023-12-07T09:12:54;8.63;;;4.82;;
43809;SDS011;29440;48.208;11.162;2023-12-07T09:15:20;7.82;;;4.88;;
43809;SDS011;29440;48.208;11.162;2023-12-07T09:17:46;7.28;;;4.55;;
43809;SDS011;29440;48.208;11.162;2023-12-07T09:20:13;7.38;;;4.53;;
43809;SDS011;29440;48.208;11.162;2023-12-07T09:22:48;9.15;;;4.43;;
43809;SDS011;29440;48.208;11.162;2023-12-07T09:25:17;9.23;;;4.90;;
43809;SDS011;29440;48.208;11.162;2023-12-07T09:27:42;8.10;;;4.68;;
43809;SDS011;29440;48.208;11.162;2023-12-07T09:30:08;7.18;;;4.40;;
43809;SDS011;29440;48.208;11.162;2023-12-07T09:32:38;6.97;;;4.68;;
43809;SDS011;29440;48.208;11.162;2023-12-07T09:35:05;8.20;;;5.55;;
43809;SDS011;29440;48.208;11.162;2023-12-07T09:37:40;7.70;;;5.30;;
43809;SDS011;29440;48.208;11.162;2023-12-07T09:40:06;10.73;;;5.85;;
43809;SDS011;29440;48.208;11.162;2023-12-07T09:42:32;10.32;;;4.82;;
43809;SDS011;29440;48.208;11.162;2023-12-07T09:44:58;10.10;;;5.68;;
43809;SDS011;29440;48.208;11.162;2023-12-07T09:47:26;8.63;;;5.30;;
43809;SDS011;29440;48.208;11.162;2023-12-07T09:49:53;11.13;;;5.38;;
43809;SDS011;29440;48.208;11.162;2023-12-07T09:52:19;10.32;;;5.95;;
43809;SDS011;29440;48.208;11.162;2023-12-07T09:54:46;9.27;;;6.28;;
43809;SDS011;29440;48.208;11.162;2023-12-07T09:57:12;11.13;;;6.60;;
43809;SDS011;29440;48.208;11.162;2023-12-07T09:59:39;9.57;;;6.15;;
43809;SDS011;29440;48.208;11.162;2023-12-07T10:02:05;8.65;;;5.93;;
43809;SDS011;29440;48.208;11.162;2023-12-07T10:04:32;10.40;;;6.22;;
43809;SDS011;29440;48.208;11.162;2023-12-07T10:06:58;9.52;;;6.28;;
43809;SDS011;29440;48.208;11.162;2023-12-07T10:09:24;12.20;;;6.38;;
43809;SDS011;29440;48.208;11.162;2023-12-07T10:11:53;10.68;;;6.50;;
43809;SDS011;29440;48.208;11.162;2023-12-07T10:14:28;10.30;;;6.88;;
43809;SDS011;29440;48.208;11.162;2023-12-07T10:16:54;10.75;;;7.03;;
43809;SDS011;29440;48.208;11.162;2023-12-07T10:19:21;11.85;;;7.30;;
43809;SDS011;29440;48.208;11.162;2023-12-07T10:21:51;11.30;;;7.10;;
43809;SDS011;29440;48.208;11.162;2023-12-07T10:24:17;9.95;;;6.63;;
43809;SDS011;29440;48.208;11.162;2023-12-07T10:26:45;12.18;;;7.82;;
43809;SDS011;29440;48.208;11.162;2023-12-07T10:29:11;11.15;;;7.35;;
43809;SDS011;29440;48.208;11.162;2023-12-07T10:31:37;9.40;;;6.55;;
43809;SDS011;29440;48.208;11.162;2023-12-07T10:34:04;14.05;;;7.20;;
43809;SDS011;29440;48.208;11.162;2023-12-07T10:36:31;10.02;;;6.85;;
43809;SDS011;29440;48.208;11.162;2023-12-07T10:38:57;11.88;;;7.85;;
43809;SDS011;29440;48.208;11.162;2023-12-07T10:41:23;12.25;;;7.53;;
43809;SDS011;29440;48.208;11.162;2023-12-07T10:43:55;12.75;;;6.90;;
43809;SDS011;29440;48.208;11.162;2023-12-07T10:46:24;13.32;;;7.97;;
43809;SDS011;29440;48.208;11.162;2023-12-07T10:48:52;12.90;;;6.97;;
43809;SDS011;29440;48.208;11.162;2023-12-07T10:54:22;10.38;;;5.07;;
43809;SDS011;29440;48.208;11.162;2023-12-07T10:56:51;6.93;;;4.78;;
43809;SDS011;29440;48.208;11.162;2023-12-07T10:59:19;8.45;;;5.18;;
43809;SDS011;29440;48.208;11.162;2023-12-07T11:01:45;7.22;;;4.55;;
43809;SDS011;29440;48.208;11.162;2023-12-07T11:04:13;7.22;;;4.25;;
43809;SDS011;29440;48.208;11.162;2023-12-07T11:06:39;9.18;;;4.95;;
43809;SDS011;29440;48.208;11.162;2023-12-07T11:09:19;8.73;;;4.22;;
43809;SDS011;29440;48.208;11.162;2023-12-07T11:11:51;8.23;;;4.80;;
43809;SDS011;29440;48.208;11.162;2023-12-07T11:14:19;7.72;;;4.93;;
43809;SDS011;29440;48.208;11.162;2023-12-07T11:16:46;7.78;;;4.63;;
43809;SDS011;29440;48.208;11.162;2023-12-07T11:22:01;6.40;;;4.07;;
43809;SDS011;29440;48.208;11.162;2023-12-07T11:24:29;6.50;;;4.50;;
43809;SDS011;29440;48.208;11.162;2023-12-07T11:26:55;5.53;;;3.85;;
43809;SDS011;29440;48.208;11.162;2023-12-07T11:29:21;5.55;;;3.67;;
43809;SDS011;29440;48.208;11.162;2023-12-07T11:31:49;8.13;;;4.00;;
43809;SDS011;29440;48.208;11.162;2023-12-07T11:37:04;7.72;;;5.15;;
43809;SDS011;29440;48.208;11.162;2023-12-07T11:39:39;7.35;;;4.80;;
43809;SDS011;29440;48.208;11.162;2023-12-07T11:42:11;7.20;;;4.55;;
43809;SDS011;29440;48.208;11.162;2023-12-07T11:44:40;7.38;;;3.67;;
43809;SDS011;29440;48.208;11.162;2023-12-07T11:47:06;7.38;;;4.15;;
43809;SDS011;29440;48.208;11.162;2023-12-07T11:49:34;7.70;;;3.72;;
43809;SDS011;29440;48.208;11.162;2023-12-07T11:51:59;6.00;;;3.53;;
43809;SDS011;29440;48.208;11.162;2023-12-07T11:54:26;8.52;;;3.90;;
43809;SDS011;29440;48.208;11.162;2023-12-07T11:56:53;5.55;;;3.53;;
43809;SDS011;29440;48.208;11.162;2023-12-07T11:59:22;6.80;;;3.65;;
43809;SDS011;29440;48.208;11.162;2023-12-07T12:01:50;6.57;;;4.28;;
43809;SDS011;29440;48.208;11.162;2023-12-07T12:04:17;5.65;;;3.55;;
43809;SDS011;29440;48.208;11.162;2023-12-07T12:06:43;8.80;;;4.32;;
43809;SDS011;29440;48.208;11.162;2023-12-07T12:09:11;11.15;;;3.90;;
43809;SDS011;29440;48.208;11.162;2023-12-07T12:11:38;6.90;;;4.50;;
43809;SDS011;29440;48.208;11.162;2023-12-07T12:14:08;6.82;;;4.30;;
43809;SDS011;29440;48.208;11.162;2023-12-07T12:16:34;7.30;;;3.60;;
43809;SDS011;29440;48.208;11.162;2023-12-07T12:19:00;6.30;;;3.45;;
43809;SDS011;29440;48.208;11.162;2023-12-07T12:21:26;11.75;;;6.47;;
43809;SDS011;29440;48.208;11.162;2023-12-07T12:23:52;7.32;;;4.82;;
43809;SDS011;29440;48.208;11.162;2023-12-07T12:26:17;8.48;;;5.07;;
43809;SDS011;29440;48.208;11.162;2023-12-07T12:28:43;10.75;;;5.60;;
43809;SDS011;29440;48.208;11.162;2023-12-07T12:31:10;7.80;;;4.28;;
43809;SDS011;29440;48.208;11.162;2023-12-07T12:33:37;8.05;;;4.82;;
43809;SDS011;29440;48.208;11.162;2023-12-07T12:36:03;7.70;;;4.28;;
43809;SDS011;29440;48.208;11.162;2023-12-07T12:38:31;8.73;;;4.20;;
43809;SDS011;29440;48.208;11.162;2023-12-07T12:40:57;7.78;;;4.28;;
43809;SDS011;29440;48.208;11.162;2023-12-07T12:43:23;6.90;;;3.88;;
43809;SDS011;29440;48.208;11.162;2023-12-07T12:45:49;8.82;;;4.38;;
43809;SDS011;29440;48.208;11.162;2023-12-07T12:48:15;6.82;;;4.22;;
43809;SDS011;29440;48.208;11.162;2023-12-07T12:50:40;7.05;;;4.10;;
43809;SDS011;29440;48.208;11.162;2023-12-07T12:53:07;8.43;;;4.38;;
43809;SDS011;29440;48.208;11.162;2023-12-07T12:55:38;7.47;;;3.95;;
43809;SDS011;29440;48.208;11.162;2023-12-07T12:58:09;8.20;;;4.93;;
43809;SDS011;29440;48.208;11.162;2023-12-07T13:00:38;11.35;;;4.25;;
43809;SDS011;29440;48.208;11.162;2023-12-07T13:03:04;8.57;;;4.32;;
43809;SDS011;29440;48.208;11.162;2023-12-07T13:05:31;7.38;;;4.35;;
43809;SDS011;29440;48.208;11.162;2023-12-07T13:07:58;9.30;;;4.15;;
43809;SDS011;29440;48.208;11.162;2023-12-07T13:10:24;8.82;;;4.68;;
43809;SDS011;29440;48.208;11.162;2023-12-07T13:12:50;8.65;;;4.25;;
43809;SDS011;29440;48.208;11.162;2023-12-07T13:15:16;6.53;;;3.65;;
43809;SDS011;29440;48.208;11.162;2023-12-07T13:17:42;6.80;;;3.75;;
43809;SDS011;29440;48.208;11.162;2023-12-07T13:20:08;8.45;;;3.80;;
43809;SDS011;29440;48.208;11.162;2023-12-07T13:22:41;4.72;;;2.88;;
43809;SDS011;29440;48.208;11.162;2023-12-07T13:25:10;4.60;;;2.72;;
43809;SDS011;29440;48.208;11.162;2023-12-07T13:27:37;5.00;;;2.92;;
43809;SDS011;29440;48.208;11.162;2023-12-07T13:30:03;4.50;;;2.60;;
43809;SDS011;29440;48.208;11.162;2023-12-07T13:32:32;3.97;;;2.22;;
43809;SDS011;29440;48.208;11.162;2023-12-07T13:34:59;4.38;;;2.50;;
43809;SDS011;29440;48.208;11.162;2023-12-07T13:37:25;3.63;;;2.17;;
43809;SDS011;29440;48.208;11.162;2023-12-07T13:39:52;5.45;;;2.75;;
43809;SDS011;29440;48.208;11.162;2023-12-07T13:42:22;4.85;;;2.85;;
43809;SDS011;29440;48.208;11.162;2023-12-07T13:44:55;7.00;;;2.92;;
43809;SDS011;29440;48.208;11.162;2023-12-07T13:47:23;8.23;;;2.78;;
43809;SDS011;29440;48.208;11.162;2023-12-07T13:49:54;4.95;;;2.40;;
43809;SDS011;29440;48.208;11.162;2023-12-07T13:52:21;6.28;;;1.98;;
43809;SDS011;29440;48.208;11.162;2023-12-07T13:54:47;4.00;;;2.03;;
43809;SDS011;29440;48.208;11.162;2023-12-07T13:57:13;5.53;;;2.53;;
43809;SDS011;29440;48.208;11.162;2023-12-07T13:59:39;6.10;;;3.50;;
43809;SDS011;29440;48.208;11.162;2023-12-07T14:02:05;8.77;;;3.45;;
43809;SDS011;29440;48.208;11.162;2023-12-07T14:04:32;6.72;;;3.90;;
43809;SDS011;29440;48.208;11.162;2023-12-07T14:07:10;10.07;;;4.50;;
43809;SDS011;29440;48.208;11.162;2023-12-07T14:09:47;8.80;;;4.25;;
43809;SDS011;29440;48.208;11.162;2023-12-07T14:12:14;10.20;;;4.57;;
43809;SDS011;29440;48.208;11.162;2023-12-07T14:14:43;10.15;;;4.90;;
43809;SDS011;29440;48.208;11.162;2023-12-07T14:17:14;8.25;;;4.50;;
43809;SDS011;29440;48.208;11.162;2023-12-07T14:19:40;9.23;;;5.63;;
43809;SDS011;29440;48.208;11.162;2023-12-07T14:22:06;7.85;;;4.82;;
43809;SDS011;29440;48.208;11.162;2023-12-07T14:24:35;10.65;;;4.93;;
43809;SDS011;29440;48.208;11.162;2023-12-07T14:27:02;10.48;;;5.15;;
43809;SDS011;29440;48.208;11.162;2023-12-07T14:29:28;11.05;;;5.15;;
43809;SDS011;29440;48.208;11.162;2023-12-07T14:31:54;10.35;;;5.97;;
43809;SDS011;29440;48.208;11.162;2023-12-07T14:34:21;12.23;;;6.30;;
43809;SDS011;29440;48.208;11.162;2023-12-07T14:36:46;10.57;;;5.88;;
43809;SDS011;29440;48.208;11.162;2023-12-07T14:39:12;13.75;;;6.45;;
43809;SDS011;29440;48.208;11.162;2023-12-07T14:41:45;13.70;;;7.32;;
43809;SDS011;29440;48.208;11.162;2023-12-07T14:44:15;16.20;;;6.95;;
43809;SDS011;29440;48.208;11.162;2023-12-07T14:46:45;12.48;;;6.72;;
43809;SDS011;29440;48.208;11.162;2023-12-07T14:49:12;13.55;;;6.15;;
43809;SDS011;29440;48.208;11.162;2023-12-07T14:51:38;13.68;;;7.03;;
43809;SDS011;29440;48.208;11.162;2023-12-07T14:54:04;13.55;;;7.18;;
43809;SDS011;29440;48.208;11.162;2023-12-07T14:56:31;21.40;;;7.47;;
43809;SDS011;29440;48.208;11.162;2023-12-07T14:58:58;13.02;;;7.28;;
43809;SDS011;29440;48.208;11.162;2023-12-07T15:01:24;12.60;;;7.00;;
43809;SDS011;29440;48.208;11.162;2023-12-07T15:03:50;13.60;;;7.28;;
43809;SDS011;29440;48.208;11.162;2023-12-07T15:06:16;13.05;;;8.13;;
43809;SDS011;29440;48.208;11.162;2023-12-07T15:08:43;14.60;;;8.18;;
43809;SDS011;29440;48.208;11.162;2023-12-07T15:11:09;18.65;;;9.38;;
43809;SDS011;29440;48.208;11.162;2023-12-07T15:13:46;17.08;;;9.10;;
43809;SDS011;29440;48.208;11.162;2023-12-07T15:16:12;18.35;;;9.05;;
43809;SDS011;29440;48.208;11.162;2023-12-07T15:18:38;22.30;;;9.88;;
43809;SDS011;29440;48.208;11.162;2023-12-07T15:21:10;17.88;;;9.35;;
43809;SDS011;29440;48.208;11.162;2023-12-07T15:23:39;20.02;;;9.13;;
43809;SDS011;29440;48.208;11.162;2023-12-07T15:26:05;18.52;;;9.40;;
43809;SDS011;29440;48.208;11.162;2023-12-07T15:28:33;20.33;;;10.38;;
43809;SDS011;29440;48.208;11.162;2023-12-07T15:30:58;22.88;;;10.85;;
43809;SDS011;29440;48.208;11.162;2023-12-07T15:33:24;21.63;;;11.73;;
43809;SDS011;29440;48.208;11.162;2023-12-07T15:35:50;23.15;;;12.27;;
43809;SDS011;29440;48.208;11.162;2023-12-07T15:38:15;24.15;;;10.90;;